M/T Yigit — 9HUZ9 — position and weather

sailwx.info

Track history (hours):
 
Tides and Currents Weather Stations Pressure Air Temp Water Temp Dewpoint Dewpoint Depression Visibility Wind Speed Wind Dir Waves Ship Positions

M/T Yigit

Last reported at 2017-Oct-17 08:07 UTC. Time now 2017-Oct-18 02:29 UTC.
Position N 46°20' E 030°55'.

Length 87 m; draft 5.8 m.

Type: Tanker. MMSI: 249569000.

Date/timePositionNaut miles runAvg speedWind from/ knotsBaromVisibWave heightAir tempDewpointWater temp
2017-Oct-17 08:07N 46°20' E 030°55'410.9
2017-Oct-17 07:43N 46°25' E 030°55'211.0
2017-Oct-17 07:30N 46°27' E 030°55'510.2
2017-Oct-17 06:58N 46°32' E 030°56'4 7.4
2017-Oct-17 06:26N 46°35' E 031°01'  
2017-Oct-13 12:45N 46°31' E 030°57'0 0.6
2017-Oct-13 12:30N 46°31' E 030°56'4 4.9
2017-Oct-13 11:46N 46°27' E 030°57'511.2
2017-Oct-13 11:22N 46°23' E 030°57'411.2
2017-Oct-13 11:00N 46°19' E 030°57'9011.0
2017-Oct-13 02:52N 44°58' E 030°02'711.2
2017-Oct-13 02:16N 44°51' E 030°00'411.3
2017-Oct-13 01:54N 44°47' E 029°60'411.2
2017-Oct-13 01:30N 44°43' E 029°59'511.0
2017-Oct-13 01:00N 44°38' E 029°57'510.9
2017-Oct-13 00:30N 44°33' E 029°53'510.9
2017-Oct-13 00:00N 44°28' E 029°48'510.8
2017-Oct-12 23:30N 44°24' E 029°45'611.1
2017-Oct-12 23:00N 44°19' E 029°41'611.2
2017-Oct-12 22:30N 44°14' E 029°37'611.9
2017-Oct-12 22:00N 44°09' E 029°32'611.6
2017-Oct-12 21:30N 44°04' E 029°28'611.5
2017-Oct-12 21:01N 43°59' E 029°24'611.4
2017-Oct-12 20:31N 43°54' E 029°20'611.3
2017-Oct-12 20:01N 43°49' E 029°16'611.6
2017-Oct-12 19:30N 43°45' E 029°12'611.9
2017-Oct-12 19:00N 43°39' E 029°08'611.8
2017-Oct-12 18:30N 43°34' E 029°03'611.7
2017-Oct-12 18:00N 43°29' E 028°59'612.1
2017-Oct-12 17:29N 43°24' E 028°55'612.0
2017-Oct-12 16:58N 43°19' E 028°50'611.9
2017-Oct-12 16:29N 43°15' E 028°45'  
2017-Oct-10 01:23N 40°56' E 028°58'3 0.5
2017-Oct-09 18:08N 40°53' E 028°60'211.9
2017-Oct-09 18:00N 40°52' E 029°01'711.8
2017-Oct-09 17:24N 40°48' E 029°09'511.5
2017-Oct-09 17:00N 40°46' E 029°14'611.0
2017-Oct-09 16:30N 40°44' E 029°21'510.0
2017-Oct-09 15:59N 40°45' E 029°28'2 0.0
2017-Oct-08 05:46N 40°45' E 029°30'412.3
2017-Oct-08 05:27N 40°43' E 029°25'4 8.5
2017-Oct-08 05:00N 40°43' E 029°20'5 9.9
2017-Oct-08 04:30N 40°44' E 029°14'5 9.9
2017-Oct-08 04:00N 40°44' E 029°07'510.4
2017-Oct-08 03:28N 40°44' E 029°00'  
Track history (hours):
 
Tides and Currents Weather Stations Pressure Air Temp Water Temp Dewpoint Dewpoint Depression Visibility Wind Speed Wind Dir Waves Ship Positions

M/T Yigit

Last reported at 2017-Oct-17 08:07 UTC. Time now 2017-Oct-18 02:29 UTC.
Position N 46°20' E 030°55'.

Length 87 m; draft 5.8 m.

Type: Tanker. MMSI: 249569000.

Date/timePositionNaut miles runAvg speedWind from/ knotsBaromVisibWave heightAir tempDewpointWater temp
2017-Oct-17 08:07N 46°20' E 030°55'410.9
2017-Oct-17 07:43N 46°25' E 030°55'211.0
2017-Oct-17 07:30N 46°27' E 030°55'510.2
2017-Oct-17 06:58N 46°32' E 030°56'4 7.4
2017-Oct-17 06:26N 46°35' E 031°01'  
2017-Oct-13 12:45N 46°31' E 030°57'0 0.6
2017-Oct-13 12:30N 46°31' E 030°56'4 4.9
2017-Oct-13 11:46N 46°27' E 030°57'511.2
2017-Oct-13 11:22N 46°23' E 030°57'411.2
2017-Oct-13 11:00N 46°19' E 030°57'9011.0
2017-Oct-13 02:52N 44°58' E 030°02'711.2
2017-Oct-13 02:16N 44°51' E 030°00'411.3
2017-Oct-13 01:54N 44°47' E 029°60'411.2
2017-Oct-13 01:30N 44°43' E 029°59'511.0
2017-Oct-13 01:00N 44°38' E 029°57'510.9
2017-Oct-13 00:30N 44°33' E 029°53'510.9
2017-Oct-13 00:00N 44°28' E 029°48'510.8
2017-Oct-12 23:30N 44°24' E 029°45'611.1
2017-Oct-12 23:00N 44°19' E 029°41'611.2
2017-Oct-12 22:30N 44°14' E 029°37'611.9
2017-Oct-12 22:00N 44°09' E 029°32'611.6
2017-Oct-12 21:30N 44°04' E 029°28'611.5
2017-Oct-12 21:01N 43°59' E 029°24'611.4
2017-Oct-12 20:31N 43°54' E 029°20'611.3
2017-Oct-12 20:01N 43°49' E 029°16'611.6
2017-Oct-12 19:30N 43°45' E 029°12'611.9
2017-Oct-12 19:00N 43°39' E 029°08'611.8
2017-Oct-12 18:30N 43°34' E 029°03'611.7
2017-Oct-12 18:00N 43°29' E 028°59'612.1
2017-Oct-12 17:29N 43°24' E 028°55'612.0
2017-Oct-12 16:58N 43°19' E 028°50'611.9
2017-Oct-12 16:29N 43°15' E 028°45'  
2017-Oct-10 01:23N 40°56' E 028°58'3 0.5
2017-Oct-09 18:08N 40°53' E 028°60'211.9
2017-Oct-09 18:00N 40°52' E 029°01'711.8
2017-Oct-09 17:24N 40°48' E 029°09'511.5
2017-Oct-09 17:00N 40°46' E 029°14'611.0
2017-Oct-09 16:30N 40°44' E 029°21'510.0
2017-Oct-09 15:59N 40°45' E 029°28'2 0.0
2017-Oct-08 05:46N 40°45' E 029°30'412.3
2017-Oct-08 05:27N 40°43' E 029°25'4 8.5
2017-Oct-08 05:00N 40°43' E 029°20'5 9.9
2017-Oct-08 04:30N 40°44' E 029°14'5 9.9
2017-Oct-08 04:00N 40°44' E 029°07'510.4
2017-Oct-08 03:28N 40°44' E 029°00'  

Dump ship's entire track history